Flight Track Log - Related Links

Times and Time Zones

All times are in EDT time to prevent confusion due to time zone crossing. See the C-FEMT flight status page for this flight to view local times or setup timezone preferences in your user account.

Time Position Orientation Groundspeed Altitude Reporting Facility
EDT Latitude Longitude Course Direction KTS MPH feet Rate Location/Type
Tue 10:48:15 PM 33.9632 -118.3776 244° Southwest  Level FlightAware Approximate
Tue 10:49:06 PM 33.9100 -118.5064 188° South 252 290 4,400  Level Los Angeles Center
Tue 10:50:06 PM 33.8367 -118.5194 74° East 213 245 8,300 3,400 Climbing Los Angeles Center
Tue 10:51:06 PM 33.8569 -118.4325 North 103 119 11,200 3,000 Climbing Los Angeles Center
Tue 10:52:06 PM 33.9364 -118.4297 48° Northeast 150 173 14,300 2,900 Climbing Los Angeles Center
Tue 10:53:06 PM 33.9964 -118.3486 61° Northeast 206 237 17,000 2,650 Climbing Los Angeles Center
Tue 10:54:06 PM 34.0397 -118.2544 55° Northeast 256 295 19,600 2,300 Climbing Los Angeles Center
Tue 10:55:06 PM 34.0978 -118.1531 57° Northeast 303 349 21,600 1,950 Climbing Los Angeles Center
Tue 10:56:06 PM 34.1539 -118.0492 55° Northeast 342 394 23,500 1,900 Climbing Los Angeles Center
Tue 10:57:06 PM 34.2139 -117.9450 53° Northeast 361 415 25,400 1,050 Climbing Los Angeles Center
Tue 10:58:06 PM 34.2717 -117.8531 58° Northeast 375 432 25,600 1,000 Climbing Los Angeles Center
Tue 10:59:06 PM 34.3317 -117.7361 58° Northeast 375 432 27,400 1,736 Climbing Los Angeles Center
Tue 11:00:07 PM 34.3914 -117.6217 55° Northeast 388 447 29,100 1,400 Climbing Los Angeles Center
Tue 11:01:06 PM 34.4556 -117.5094 57° Northeast 393 452 30,200 1,210 Climbing Los Angeles Center
Tue 11:02:06 PM 34.5172 -117.3944 57° Northeast 398 458 31,500 1,150 Climbing Los Angeles Center
Tue 11:03:06 PM 34.5811 -117.2742 57° Northeast 410 472 32,500 1,050 Climbing Los Angeles Center
Tue 11:04:06 PM 34.6469 -117.1514 57° Northeast 422 486 33,600 1,150 Climbing Los Angeles Center
Tue 11:05:06 PM 34.7125 -117.0283 55° Northeast 427 491 34,800 1,150 Climbing Los Angeles Center
Tue 11:06:06 PM 34.7822 -116.9053 57° Northeast 435 501 35,900 1,250 Climbing Los Angeles Center
Tue 11:07:06 PM 34.8456 -116.7844 55° Northeast 435 501 37,300 1,250 Climbing Los Angeles Center
Tue 11:08:06 PM 34.9131 -116.6658 55° Northeast 435 501 38,400 850 Climbing Los Angeles Center
Tue 11:09:06 PM 34.9822 -116.5472 45° Northeast 430 495 39,000 300 Climbing Los Angeles Center
Tue 11:10:06 PM 35.0703 -116.4411 46° Northeast 430 495 39,000 50 Level Los Angeles Center
Tue 11:11:06 PM 35.1581 -116.3297 46° Northeast 440 506 39,100  Climbing Los Angeles Center
Tue 11:12:06 PM 35.2481 -116.2153 45° Northeast 450 518 39,000  Descending Los Angeles Center
Tue 11:13:06 PM 35.3378 -116.1033 46° Northeast 450 518 39,100  Climbing Los Angeles Center
Tue 11:14:07 PM 35.4233 -115.9939 46° Northeast 450 518 39,000 -50 Descending Los Angeles Center
Tue 11:15:06 PM 35.5128 -115.8814 44° Northeast 450 518 39,000  Level Los Angeles Center
Tue 11:16:06 PM 35.5939 -115.7842 47° Northeast 445 512 39,000  Level Los Angeles Center
Tue 11:17:06 PM 35.6792 -115.6714 46° Northeast 445 512 39,000  Level Los Angeles Center
Tue 11:18:06 PM 35.7664 -115.5608 46° Northeast 445 512 39,000  Level Los Angeles Center
Tue 11:19:06 PM 35.8556 -115.4472 47° Northeast 445 512 39,000  Level Los Angeles Center
Tue 11:20:06 PM 35.9425 -115.3311 45° Northeast 450 518 39,000 50 Level Los Angeles Center
Tue 11:21:06 PM 36.0314 -115.2200 46° Northeast 450 518 39,100  Climbing Los Angeles Center
Tue 11:22:06 PM 36.1222 -115.1031 45° Northeast 450 518 39,000 -50 Descending Los Angeles Center
Tue 11:23:06 PM 36.2131 -114.9914 46° Northeast 450 518 39,000  Level Los Angeles Center
Tue 11:24:06 PM 36.3036 -114.8742 46° Northeast 460 529 39,000  Level Los Angeles Center
Tue 11:25:06 PM 36.3942 -114.7592 46° Northeast 460 529 39,000  Level Los Angeles Center
Tue 11:26:06 PM 36.4867 -114.6389 46° Northeast 460 529 39,000 50 Level Los Angeles Center
Tue 11:27:06 PM 36.5769 -114.5233 47° Northeast 460 529 39,100  Climbing Los Angeles Center
Tue 11:28:06 PM 36.6672 -114.4025 47° Northeast 460 529 39,000 -50 Descending Los Angeles Center
Tue 11:29:06 PM 36.7572 -114.2839 58° Northeast 460 529 39,000  Level Los Angeles Center
Tue 11:30:06 PM 36.8281 -114.1447 59° Northeast 460 529 39,000  Level Los Angeles Center
Tue 11:31:06 PM 36.8964 -114.0028 60° Northeast 471 542 39,000  Level Los Angeles Center
Tue 11:32:06 PM 36.9608 -113.8633 58° Northeast 471 542 39,000  Level Los Angeles Center
Tue 11:33:06 PM 37.0369 -113.7078 59° Northeast 471 542 39,000  Level Los Angeles Center
Tue 11:34:06 PM 37.1050 -113.5678 60° Northeast 471 542 39,000  Level Los Angeles Center
Tue 11:35:43 PM 37.2108 -113.3383 60° Northeast 476 548 39,000  Level Salt Lake Center
Tue 11:36:44 PM 37.2789 -113.1922 60° Northeast 477 549 39,000  Level Salt Lake Center
Tue 11:37:45 PM 37.3464 -113.0469 60° Northeast 478 550 39,000  Level Salt Lake Center
Tue 11:38:46 PM 37.4136 -112.9014 60° Northeast 478 550 39,000  Level Salt Lake Center
Tue 11:39:47 PM 37.4786 -112.7569 59° Northeast 480 552 39,000  Level Salt Lake Center
Tue 11:40:49 PM 37.5461 -112.6133 60° Northeast 480 552 39,000  Level Salt Lake Center
Tue 11:41:50 PM 37.6136 -112.4678 60° Northeast 479 551 39,000  Level Salt Lake Center
Tue 11:42:51 PM 37.6811 -112.3194 54° Northeast 480 552 39,000  Level Salt Lake Center
Tue 11:43:52 PM 37.7597 -112.1814 54° Northeast 478 550 39,000  Level Salt Lake Center
Tue 11:44:53 PM 37.8400 -112.0400 54° Northeast 483 556 39,000  Level Salt Lake Center
Tue 11:45:54 PM 37.9194 -111.9000 54° Northeast 484 557 39,000 49 Level Salt Lake Center
Tue 11:46:55 PM 37.9992 -111.7600 54° Northeast 483 556 39,100  Climbing Salt Lake Center
Tue 11:47:57 PM 38.0797 -111.6206 53° Northeast 483 556 39,000 -49 Descending Salt Lake Center
Tue 11:48:58 PM 38.1631 -111.4819 54° Northeast 485 558 39,000  Level Salt Lake Center
Tue 11:49:59 PM 38.2425 -111.3403 55° Northeast 485 558 39,000  Level Salt Lake Center
Tue 11:51:00 PM 38.3214 -111.1989 54° Northeast 483 556 39,000  Level Salt Lake Center
Tue 11:52:01 PM 38.4006 -111.0578 54° Northeast 483 556 39,000  Level Salt Lake Center
Tue 11:53:02 PM 38.4856 -110.9064 55° Northeast 482 555 39,000  Level Salt Lake Center
Tue 11:54:03 PM 38.5592 -110.7722 54° Northeast 482 555 39,000  Level Salt Lake Center
Tue 11:55:04 PM 38.6464 -110.6164 55° Northeast 482 555 39,000  Level Salt Lake Center
Tue 11:56:05 PM 38.7206 -110.4808 55° Northeast 484 557 39,000  Level Salt Lake Center
Tue 11:57:06 PM 38.8072 -110.3228 55° Northeast 485 558 39,000  Level Salt Lake Center
Tue 11:58:07 PM 38.8811 -110.1858 55° Northeast 486 559 39,000  Level Salt Lake Center
Tue 11:59:08 PM 38.9547 -110.0503 55° Northeast 485 558 39,000  Level Salt Lake Center
Wed 12:00:10 AM 39.0408 -109.8922 56° Northeast 484 557 39,000  Level Salt Lake Center
Wed 12:01:11 AM 39.1133 -109.7550 55° Northeast 484 557 39,000  Level Salt Lake Center
Wed 12:02:12 AM 39.1864 -109.6183 55° Northeast 484 557 39,000  Level Salt Lake Center
Wed 12:03:13 AM 39.2722 -109.4581 55° Northeast 485 558 39,000  Level Salt Lake Center
Wed 12:03:54 AM 39.3236 -109.3614 56° Northeast 476 548 39,000  Level Denver Center
Wed 12:04:54 AM 39.3914 -109.2325 56° Northeast 483 556 39,000  Level Denver Center
Wed 12:05:54 AM 39.4722 -109.0772 55° Northeast 473 544 39,000  Level Denver Center
Wed 12:06:54 AM 39.5483 -108.9344 56° Northeast 479 551 39,000  Level Denver Center
Wed 12:07:54 AM 39.6156 -108.8050 56° Northeast 479 551 39,000  Level Denver Center
Wed 12:08:54 AM 39.7044 -108.6353 56° Northeast 494 568 39,000  Level Denver Center
Wed 12:09:54 AM 39.7781 -108.4942 57° Northeast 489 563 39,000  Level Denver Center
Wed 12:10:54 AM 39.8450 -108.3611 56° Northeast 489 563 39,000  Level Denver Center
Wed 12:11:54 AM 39.9289 -108.1981 56° Northeast 483 556 39,000 50 Level Denver Center
Wed 12:12:54 AM 40.0039 -108.0511 57° Northeast 483 556 39,100  Climbing Denver Center
Wed 12:13:54 AM 40.0725 -107.9142 60° Northeast 488 562 39,000 -50 Descending Denver Center
Wed 12:14:54 AM 40.1408 -107.7608 61° Northeast 494 568 39,000  Level Denver Center
Wed 12:15:54 AM 40.2158 -107.5856 60° Northeast 489 563 39,000  Level Denver Center
Wed 12:16:54 AM 40.2839 -107.4314 60° Northeast 494 568 39,000  Level Denver Center
Wed 12:18:01 AM 40.3645 -107.2460 60° Northeast 498 573 39,000  Level FlightAware ADS-B
Wed 12:18:46 AM 40.4154 -107.1280 59° Northeast 498 573 39,000  Level FlightAware ADS-B
Wed 12:19:54 AM 40.4911 -106.9647 61° Northeast 488 562 39,000  Level Denver Center
Wed 12:20:54 AM 40.5564 -106.8094 60° Northeast 483 556 39,000  Level Denver Center
Wed 12:21:54 AM 40.6256 -106.6483 64° Northeast 483 556 39,000  Level Denver Center
Wed 12:22:54 AM 40.6819 -106.4981 59° Northeast 488 562 39,000 50 Level Denver Center
Wed 12:23:54 AM 40.7633 -106.3197 61° Northeast 503 579 39,100  Climbing Denver Center
Wed 12:24:54 AM 40.8297 -106.1606 63° Northeast 503 579 39,000  Descending Denver Center
Wed 12:25:54 AM 40.8897 -106.0064 62° Northeast 483 556 39,100  Climbing Denver Center
Wed 12:26:54 AM 40.9536 -105.8492 61° Northeast 481 554 39,000 -50 Descending Denver Center
Wed 12:27:54 AM 41.0214 -105.6864 61° Northeast 488 562 39,000  Level Denver Center
Wed 12:28:54 AM 41.0808 -105.5450 62° Northeast 488 562 39,000  Level Denver Center
Wed 12:30:31 AM 41.1975 -105.2550 62° Northeast 496 571 39,000  Level FlightAware ADS-B
Wed 12:31:01 AM 41.2300 -105.1740 63° Northeast 499 574 39,000  Level FlightAware ADS-B
Wed 12:31:32 AM 41.2625 -105.0900 63° Northeast 500 575 39,000  Level FlightAware ADS-B
Wed 12:32:02 AM 41.2939 -105.0070 64° Northeast 500 575 39,000  Level FlightAware ADS-B
Wed 12:32:32 AM 41.3242 -104.9240 65° Northeast 498 573 39,000  Level FlightAware ADS-B
Wed 12:33:07 AM 41.3576 -104.8280 66° East 498 573 39,000  Level FlightAware ADS-B
Wed 12:33:32 AM 41.3803 -104.7590 61° Northeast 500 575 39,000  Level FlightAware ADS-B
Wed 12:33:45 AM 41.3951 -104.7240 56° Northeast 501 577 39,000  Level FlightAware ADS-B
Wed 12:34:02 AM 41.4180 -104.6790 56° Northeast 501 577 39,000  Level FlightAware ADS-B
Wed 12:34:24 AM 41.4452 -104.6250 59° Northeast 502 578 39,000  Level FlightAware ADS-B
Wed 12:34:44 AM 41.4693 -104.5710 61° Northeast 503 579 39,000  Level FlightAware ADS-B
Wed 12:35:14 AM 41.5031 -104.4890 62° Northeast 503 579 39,000  Level FlightAware ADS-B
Wed 12:35:49 AM 41.5405 -104.3950 62° Northeast 503 579 39,000  Level FlightAware ADS-B
Wed 12:36:19 AM 41.5734 -104.3130 62° Northeast 504 580 39,000  Level FlightAware ADS-B
Wed 12:36:49 AM 41.6060 -104.2300 62° Northeast 504 580 39,000  Level FlightAware ADS-B
Wed 12:37:20 AM 41.6391 -104.1460 63° Northeast 500 575 39,000 98 Level FlightAware ADS-B
Wed 12:37:50 AM 41.6708 -104.0640 63° Northeast 496 571 39,100 100 Climbing FlightAware ADS-B
Wed 12:38:20 AM 41.7026 -103.9810 62° Northeast 493 567 39,100  Level FlightAware ADS-B
Wed 12:38:50 AM 41.7341 -103.9000 63° Northeast 494 568 39,100 -100 Level FlightAware ADS-B
Wed 12:39:20 AM 41.7657 -103.8180 62° Northeast 494 568 39,000 -97 Descending FlightAware ADS-B
Wed 12:39:52 AM 41.7983 -103.7340 63° Northeast 488 562 39,000  Level FlightAware ADS-B
Wed 12:40:24 AM 41.8314 -103.6470 63° Northeast 486 559 39,000  Level FlightAware ADS-B
Wed 12:40:58 AM 41.8661 -103.5560 63° Northeast 483 556 39,000  Level FlightAware ADS-B
Wed 12:41:12 AM 41.8802 -103.5190 69° East 483 556 39,000  Level FlightAware ADS-B
Wed 12:41:24 AM 41.8898 -103.4850 75° East 483 556 39,000 176 Level FlightAware ADS-B
Wed 12:41:46 AM 41.9026 -103.4220 79° East 481 554 39,100  Climbing FlightAware ADS-B
Wed 12:42:16 AM 41.9153 -103.3330 80° East 482 555 39,000 -98 Descending FlightAware ADS-B
Wed 12:42:47 AM 41.9272 -103.2450 79° East 479 551 39,000  Level FlightAware ADS-B
Wed 12:43:19 AM 41.9398 -103.1550 79° East 476 548 39,000  Level FlightAware ADS-B
Wed 12:43:49 AM 41.9529 -103.0630 79° East 476 548 39,000  Level FlightAware ADS-B
Wed 12:44:27 AM 41.9683 -102.9540 79° East 474 545 39,000  Level FlightAware ADS-B
Wed 12:44:57 AM 41.9804 -102.8660 80° East 475 547 39,000  Level FlightAware ADS-B
Wed 12:45:27 AM 41.9922 -102.7790 80° East 476 548 39,000  Level FlightAware ADS-B
Wed 12:45:58 AM 42.0040 -102.6910 80° East 481 554 39,000  Level FlightAware ADS-B
Wed 12:46:28 AM 42.0160 -102.6020 80° East 485 558 39,000  Level FlightAware ADS-B
Wed 12:46:58 AM 42.0279 -102.5120 80° East 489 563 39,000  Level FlightAware ADS-B
Wed 12:47:30 AM 42.0405 -102.4170 80° East 490 564 39,000  Level FlightAware ADS-B
Wed 12:48:00 AM 42.0525 -102.3270 80° East 492 566 39,000 95 Level FlightAware ADS-B
Wed 12:48:33 AM 42.0655 -102.2270 80° East 494 568 39,100  Climbing FlightAware ADS-B
Wed 12:49:04 AM 42.0774 -102.1350 80° East 497 572 39,000 -98 Descending FlightAware ADS-B
Wed 12:49:34 AM 42.0893 -102.0430 80° East 497 572 39,000  Level FlightAware ADS-B
Wed 12:50:04 AM 42.1011 -101.9510 80° East 498 573 39,000 98 Level FlightAware ADS-B
Wed 12:50:35 AM 42.1131 -101.8570 80° East 496 571 39,100  Climbing FlightAware ADS-B
Wed 12:51:14 AM 42.1279 -101.7400 80° East 494 568 39,000 -54 Descending FlightAware ADS-B
Wed 12:52:27 AM 42.1555 -101.5200 81° East 494 568 39,000  Level FlightAware ADS-B
Wed 12:53:54 AM 42.1842 -101.2864 81° East 494 568 39,000  Level Denver Center
Wed 12:54:54 AM 42.2053 -101.1108 81° East 489 563 39,000  Level Denver Center
Wed 12:55:54 AM 42.2292 -100.9097 80° East 484 557 39,000  Level Denver Center
Wed 12:56:54 AM 42.2519 -100.7308 82° East 484 557 39,000  Level Denver Center
Wed 12:57:54 AM 42.2689 -100.5722 81° East 490 564 39,000  Level Denver Center
Wed 12:58:54 AM 42.2908 -100.3903 82° East 483 556 39,000  Level Denver Center
Wed 12:59:54 AM 42.3117 -100.1944 81° East 483 556 39,000  Level Denver Center
Wed 01:02:06 AM 42.3567 -99.8008 81° East 487 560 39,000  Level Minneapolis Center
Wed 01:03:06 AM 42.3772 -99.6231 82° East 482 555 39,000  Level Minneapolis Center
Wed 01:04:06 AM 42.3956 -99.4422 82° East 477 549 39,000  Level Minneapolis Center
Wed 01:05:06 AM 42.4136 -99.2611 81° East 477 549 39,000  Level Minneapolis Center
Wed 01:06:06 AM 42.4331 -99.0858 82° East 477 549 39,000  Level Minneapolis Center
Wed 01:07:06 AM 42.4506 -98.9044 80° East 477 549 39,000  Level Minneapolis Center
Wed 01:08:06 AM 42.4739 -98.7292 57° Northeast 477 549 39,000  Level Minneapolis Center
Wed 01:09:06 AM 42.5500 -98.5725 49° Northeast 471 542 39,000  Level Minneapolis Center
Wed 01:10:06 AM 42.6375 -98.4361 49° Northeast 480 552 39,000  Level Minneapolis Center
Wed 01:11:06 AM 42.7272 -98.2936 52° Northeast 485 558 39,000  Level Minneapolis Center
Wed 01:12:06 AM 42.8039 -98.1586 50° Northeast 491 565 39,000 50 Level Minneapolis Center
Wed 01:13:06 AM 42.8911 -98.0181 49° Northeast 491 565 39,100  Climbing Minneapolis Center
Wed 01:14:06 AM 42.9800 -97.8803 51° Northeast 491 565 39,000 -50 Descending Minneapolis Center
Wed 01:15:06 AM 43.0650 -97.7358 49° Northeast 491 565 39,000  Level Minneapolis Center
Wed 01:16:06 AM 43.1536 -97.5972 49° Northeast 486 559 39,000  Level Minneapolis Center
Wed 01:17:06 AM 43.2419 -97.4581 51° Northeast 486 559 39,000  Level Minneapolis Center
Wed 01:18:06 AM 43.3350 -97.3017 50° Northeast 486 559 39,000  Level Minneapolis Center
Wed 01:19:06 AM 43.4214 -97.1586 50° Northeast 486 559 39,000  Level Minneapolis Center
Wed 01:20:06 AM 43.5094 -97.0153 51° Northeast 486 559 39,000  Level Minneapolis Center
Wed 01:21:06 AM 43.5950 -96.8717 66° East 486 559 39,000  Level Minneapolis Center
Wed 01:22:06 AM 43.6481 -96.7056 82° East 471 542 39,000  Level Minneapolis Center
Wed 01:23:06 AM 43.6658 -96.5228 83° East 463 533 39,000  Level Minneapolis Center
Wed 01:24:06 AM 43.6811 -96.3428 84° East 459 528 39,000  Level Minneapolis Center
Wed 01:25:06 AM 43.6939 -96.1625 85° East 464 534 39,000  Level Minneapolis Center
Wed 01:26:06 AM 43.7039 -95.9994 85° East 469 540 39,000  Level Minneapolis Center
Wed 01:27:06 AM 43.7144 -95.8131 85° East 475 547 39,000  Level Minneapolis Center
Wed 01:28:06 AM 43.7267 -95.6269 84° East 480 552 39,000 50 Level Minneapolis Center
Wed 01:29:06 AM 43.7406 -95.4408 86° East 480 552 39,100  Climbing Minneapolis Center
Wed 01:30:06 AM 43.7500 -95.2514 85° East 480 552 39,000 250 Descending Minneapolis Center
Wed 01:31:06 AM 43.7611 -95.0650 85° East 480 552 39,600 750 Climbing Minneapolis Center
Wed 01:32:06 AM 43.7719 -94.8814 85° East 480 552 40,500 700 Climbing Minneapolis Center
Wed 01:33:06 AM 43.7828 -94.6919 85° East 480 552 41,000 300 Climbing Minneapolis Center
Wed 01:34:06 AM 43.7950 -94.5025 87° East 480 552 41,100  Climbing Minneapolis Center
Wed 01:35:06 AM 43.8031 -94.2956 87° East 480 552 41,000 -50 Descending Minneapolis Center
Wed 01:36:06 AM 43.8106 -94.1089 86° East 480 552 41,000  Level Minneapolis Center
Wed 01:37:06 AM 43.8200 -93.9250 86° East 480 552 41,000  Level Minneapolis Center
Wed 01:38:06 AM 43.8289 -93.7353 87° East 480 552 41,000  Level Minneapolis Center
Wed 01:39:06 AM 43.8356 -93.5453 86° East 480 552 41,000  Level Minneapolis Center
Wed 01:40:06 AM 43.8458 -93.3583 87° East 480 552 41,000  Level Minneapolis Center
Wed 01:41:06 AM 43.8539 -93.1714 88° East 485 558 41,000  Level Minneapolis Center
Wed 01:42:06 AM 43.8597 -92.9783 86° East 491 565 41,000  Level Minneapolis Center
Wed 01:43:06 AM 43.8692 -92.7856 87° East 500 575 41,000  Level Minneapolis Center
Wed 01:44:06 AM 43.8761 -92.5925 87° East 500 575 41,000 50 Level Minneapolis Center
Wed 01:45:06 AM 43.8828 -92.3994 90° East 500 575 41,100  Climbing Minneapolis Center
Wed 01:46:06 AM 43.8831 -92.2153 95° East 491 565 41,000 -50 Descending Minneapolis Center
Wed 01:47:06 AM 43.8728 -92.0486 98° East 485 558 41,000 -50 Level Minneapolis Center
Wed 01:48:06 AM 43.8558 -91.8764 102° East 466 536 40,900  Descending Minneapolis Center
Wed 01:49:06 AM 43.8283 -91.6986 105° East 467 537 41,000 50 Climbing Minneapolis Center
Wed 01:50:06 AM 43.7942 -91.5272 99° East 467 537 41,000  Level Minneapolis Center
Wed 01:51:06 AM 43.7744 -91.3467 79° East 467 537 41,000 -46 Level Minneapolis Center
Wed 01:52:16 AM 43.8036 -91.1414 68° East 472 543 40,900  Descending Chicago Center
Wed 01:53:06 AM 43.8503 -90.9786 59° Northeast 490 564 41,000 55 Climbing Minneapolis Center
Wed 01:54:06 AM 43.9114 -90.8378 57° Northeast 466 536 41,000  Level Minneapolis Center
Wed 01:55:06 AM 43.9828 -90.6844 54° Northeast 466 536 41,000  Level Minneapolis Center
Wed 01:56:06 AM 44.0683 -90.5217 55° Northeast 477 549 41,000 50 Level Minneapolis Center
Wed 01:57:06 AM 44.1433 -90.3703 74° East 471 542 41,100  Climbing Minneapolis Center
Wed 01:58:06 AM 44.1800 -90.1889 75° East 466 536 41,000 -50 Descending Minneapolis Center
Wed 01:59:06 AM 44.2161 -90.0014 74° East 486 559 41,000  Level Minneapolis Center
Wed 02:00:06 AM 44.2539 -89.8164 75° East 491 565 41,000  Level Minneapolis Center
Wed 02:01:06 AM 44.2875 -89.6344 74° East 491 565 41,000  Level Minneapolis Center
Wed 02:02:06 AM 44.3247 -89.4464 74° East 491 565 41,000  Level Minneapolis Center
Wed 02:03:06 AM 44.3636 -89.2547 76° East 502 578 41,000  Level Minneapolis Center
Wed 02:04:06 AM 44.3981 -89.0664 75° East 497 572 41,000  Level Minneapolis Center
Wed 02:05:06 AM 44.4344 -88.8775 75° East 503 579 41,000  Level Minneapolis Center
Wed 02:06:06 AM 44.4703 -88.6883 76° East 503 579 41,000  Level Minneapolis Center
Wed 02:07:06 AM 44.5019 -88.5050 76° East 498 573 41,000  Level Minneapolis Center
Wed 02:08:06 AM 44.5353 -88.3156 85° East 493 567 41,000  Level Minneapolis Center
Wed 02:09:06 AM 44.5475 -88.1339 98° East 479 551 41,000  Level Minneapolis Center
Wed 02:10:06 AM 44.5283 -87.9489 98° East 470 541 41,000  Level Minneapolis Center
Wed 02:11:06 AM 44.5108 -87.7672 98° East 475 547 41,000  Level Minneapolis Center
Wed 02:12:06 AM 44.4911 -87.5828 99° East 475 547 41,000  Level Minneapolis Center
Wed 02:13:06 AM 44.4708 -87.4011 100° East 475 547 41,000  Level Minneapolis Center
Wed 02:14:06 AM 44.4483 -87.2172 99° East 482 555 41,000  Level Minneapolis Center
Wed 02:15:06 AM 44.4278 -87.0361 99° East 477 549 41,000  Level Minneapolis Center
Wed 02:16:06 AM 44.4097 -86.8692 99° East 482 555 41,000  Level Minneapolis Center
Wed 02:17:06 AM 44.3886 -86.6914 100° East 477 549 41,000  Level Minneapolis Center
Wed 02:18:06 AM 44.3653 -86.5136 99° East 472 543 41,000  Level Minneapolis Center
Wed 02:19:06 AM 44.3436 -86.3331 100° East 466 536 41,000  Level Minneapolis Center
Wed 02:20:06 AM 44.3214 -86.1528 100° East 466 536 41,000  Level Minneapolis Center
Wed 02:21:06 AM 44.2989 -85.9697 100° East 471 542 41,000  Level Minneapolis Center
Wed 02:22:06 AM 44.2764 -85.7925 100° East 471 542 41,000  Level Minneapolis Center
Wed 02:23:06 AM 44.2533 -85.6097 100° East 471 542 41,000  Level Minneapolis Center
Wed 02:24:06 AM 44.2303 -85.4297 100° East 471 542 41,000  Level Minneapolis Center
Wed 02:25:06 AM 44.2067 -85.2503 100° East 476 548 41,000  Level Minneapolis Center
Wed 02:26:06 AM 44.1831 -85.0708 101° East 476 548 41,000  Level Minneapolis Center
Wed 02:27:06 AM 44.1586 -84.8886 101° East 476 548 41,000  Level Minneapolis Center
Wed 02:28:06 AM 44.1347 -84.7125 101° East 481 554 41,000  Level Minneapolis Center
Wed 02:29:06 AM 44.1097 -84.5306 108° East 481 554 41,000  Level Minneapolis Center
Wed 02:29:59 AM 44.0667 -84.3500 97° East 480 552 41,000  Level Toronto Center
Wed 02:30:59 AM 44.0500 -84.1500 99° East 470 541 41,000  Level Toronto Center
Wed 02:31:59 AM 44.0333 -84.0000 105° East 460 529 41,000  Level Toronto Center
Wed 02:32:59 AM 44.0000 -83.8333 97° East 470 541 41,000  Level Toronto Center
Wed 02:33:59 AM 43.9833 -83.6500 103° East 470 541 41,000  Level Toronto Center
Wed 02:34:59 AM 43.9500 -83.4500 105° East 470 541 41,000  Level Toronto Center
Wed 02:35:59 AM 43.9167 -83.2833 97° East 470 541 41,000  Level Toronto Center
Wed 02:36:59 AM 43.9000 -83.1000 104° East 470 541 41,000  Level Toronto Center
Wed 02:37:59 AM 43.8667 -82.9167 105° East 470 541 41,000  Level Toronto Center
Wed 02:38:59 AM 43.8333 -82.7500 97° East 470 541 41,000  Level Toronto Center
Wed 02:39:59 AM 43.8167 -82.5667 105° East 470 541 41,000  Level Toronto Center
Wed 02:40:59 AM 43.7833 -82.4000 104° East 470 541 41,000 -100 Level Toronto Center
Wed 02:41:59 AM 43.7500 -82.2167 104° East 470 541 40,800 -1,000 Descending Toronto Center
Wed 02:42:59 AM 43.7167 -82.0333 90° East 470 541 39,000 -2,200 Descending Toronto Center
Wed 02:43:59 AM 43.7167 -81.8667 104° East 460 529 36,400 -3,250 Descending Toronto Center
Wed 02:44:59 AM 43.6833 -81.6833 105° East 460 529 32,500 -3,650 Descending Toronto Center
Wed 02:45:59 AM 43.6500 -81.5167 107° East 470 541 29,100 -3,250 Descending Toronto Center
Wed 02:46:59 AM 43.6167 -81.3667 104° East 470 541 26,000 -3,100 Descending Toronto Center
Wed 02:47:59 AM 43.5833 -81.1833 105° East 450 518 22,900 -2,950 Descending Toronto Center
Wed 02:48:59 AM 43.5500 -81.0167 90° East 440 506 20,100 -2,700 Descending Toronto Center
Wed 02:49:59 AM 43.5500 -80.8500 80° East 410 472 17,500 -2,450 Descending Toronto Center
Wed 02:50:59 AM 43.5667 -80.7167 90° East 380 437 15,200 -2,400 Descending Toronto Center
Wed 02:51:59 AM 43.5667 -80.5833 90° East 380 437 12,700 -2,450 Descending Toronto Center
Wed 02:52:59 AM 43.5667 -80.4333 90° East 360 414 10,300 -2,250 Descending Toronto Center
Wed 02:53:59 AM 43.5667 -80.3000 90° East 340 391 8,200 -1,550 Descending Toronto Center
Wed 02:54:59 AM 43.5667 -80.1833 90° East 300 345 7,200 -950 Descending Toronto Center
Wed 02:55:59 AM 43.5667 -80.0667 105° East 290 334 6,300 -1,300 Descending Toronto Center
Wed 02:56:59 AM 43.5500 -79.9833 90° East 280 322 4,600 -1,350 Descending Toronto Center
Wed 02:57:59 AM 43.5500 -79.8833 71° East 250 288 3,600 -850 Descending Toronto Center
Wed 02:58:59 AM 43.5667 -79.8167 55° Northeast 210 242 2,900 -350 Descending Toronto Center
Wed 02:59:59 AM 43.6000 -79.7500 65° Northeast 180 207 2,900 -600 Level Toronto Center
Wed 03:00:59 AM 43.6167 -79.7000 47° Northeast 170 196 1,700 -900 Descending Toronto Center
Wed 03:01:59 AM 43.6500 -79.6500 36° Northeast 140 161 1,100 -550 Descending Toronto Center
Wed 03:02:59 AM 43.6667 -79.6333 36° Northeast 120 138 600 -500 Descending Toronto Center

Login

Don't have an account? Register now (free) for customized features, flight alerts, and more!